Time;durP1;ratioP1;P1;durP2;ratioP2;P2;SDS_P1;SDS_P2;PMS_P1;PMS_P2;Temp;Humidity;BMP_temperature;BMP_pressure;BME280_temperature;BME280_humidity;BME280_pressure;Samples;Min_cycle;Max_cycle;Signal;HPM_P1;HPM_P2
2022/01/17 00:01:32;;;;;;;3.50;2.10;;;;;;;26.09;28.55;97886.34;4938659;28;20062;-57
2022/01/17 00:03:57;;;;;;;6.20;2.42;;;;;;;26.09;28.65;97890.78;4938867;28;20019;-57
2022/01/17 00:06:23;;;;;;;4.10;2.20;;;;;;;26.09;28.68;97878.47;4935905;28;20054;-58
2022/01/17 00:08:49;;;;;;;3.78;2.13;;;;;;;26.10;28.55;97876.72;4936964;28;20038;-56
2022/01/17 00:11:16;;;;;;;24.35;2.45;;;;;;;26.09;28.56;97886.34;4932136;28;20129;-56
2022/01/17 00:13:42;;;;;;;6.35;2.20;;;;;;;26.10;28.54;97879.34;4937673;28;20465;-56
2022/01/17 00:16:14;;;;;;;5.18;2.15;;;;;;;26.10;28.64;97890.69;4940494;28;20027;-58
2022/01/17 00:21:05;;;;;;;2.95;2.00;;;;;;;26.10;28.59;97893.31;4933817;28;20062;-56
2022/01/17 00:23:31;;;;;;;5.80;2.10;;;;;;;26.12;28.71;97889.81;4926293;28;20221;-58
2022/01/17 00:25:56;;;;;;;3.38;2.20;;;;;;;26.10;28.64;97888.06;4916403;28;20031;-55
2022/01/17 00:28:22;;;;;;;6.72;2.00;;;;;;;26.10;28.63;97898.56;4914641;28;20030;-57
2022/01/17 00:30:47;;;;;;;3.22;2.20;;;;;;;26.12;28.66;97900.31;4933472;28;20027;-56
2022/01/17 00:33:13;;;;;;;4.47;1.92;;;;;;;26.10;28.64;97897.75;4938604;28;20026;-59
2022/01/17 00:35:38;;;;;;;4.18;2.13;;;;;;;26.10;28.61;97895.13;4938314;28;20038;-57
2022/01/17 00:38:04;;;;;;;4.30;2.30;;;;;;;26.09;28.64;97891.63;4937549;28;20212;-58
2022/01/17 00:40:29;;;;;;;5.60;2.10;;;;;;;26.08;28.71;97895.16;4933412;28;20041;-57
2022/01/17 00:42:54;;;;;;;3.15;1.80;;;;;;;26.09;28.69;97906.53;4939185;28;20704;-56
2022/01/17 00:45:26;;;;;;;3.97;2.17;;;;;;;26.09;28.66;97917.88;4945521;28;20628;-57
2022/01/17 00:47:52;;;;;;;;;;;;;;;26.09;28.75;97907.38;4938458;28;20038;-56
2022/01/17 00:50:17;;;;;;;3.65;1.92;;;;;;;26.10;28.51;97929.25;4939977;28;19918;-58
2022/01/17 00:52:42;;;;;;;5.03;2.13;;;;;;;26.09;28.71;97935.44;4935353;28;20081;-57
2022/01/17 00:55:08;;;;;;;3.70;1.98;;;;;;;26.08;28.57;97925.81;4934709;28;20077;-57
2022/01/17 00:57:34;;;;;;;3.40;1.60;;;;;;;26.07;28.57;97935.47;4932536;28;20114;-56
2022/01/17 00:59:59;;;;;;;7.03;2.10;;;;;;;26.07;28.70;97914.47;4946866;28;20031;-57
2022/01/17 01:02:25;;;;;;;2.67;1.70;;;;;;;26.06;28.56;97923.28;4940516;28;20033;-57
2022/01/17 01:04:50;;;;;;;3.45;1.92;;;;;;;26.06;28.60;97923.28;4935728;28;20026;-57
2022/01/17 01:07:15;;;;;;;3.53;1.90;;;;;;;26.07;28.75;97934.63;4935873;28;20041;-56
2022/01/17 01:09:56;;;;;;;5.63;1.80;;;;;;;26.05;28.70;97932.03;4935282;28;20031;-57
2022/01/17 01:12:22;;;;;;;3.00;1.80;;;;;;;26.06;28.67;97939.03;4937112;28;20901;-58
2022/01/17 01:14:47;;;;;;;4.32;1.70;;;;;;;26.06;28.68;97949.53;4937934;28;20058;-57
2022/01/17 01:17:30;;;;;;;5.75;1.88;;;;;;;26.06;28.49;97954.78;4938688;28;20034;-57
2022/01/17 01:20:04;;;;;;;2.42;1.50;;;;;;;26.07;28.83;97955.63;4937716;28;20035;-58
2022/01/17 01:27:58;;;;;;;2.10;1.40;;;;;;;26.05;28.68;97950.44;4934759;28;20126;-58
2022/01/17 01:30:26;;;;;;;2.47;1.60;;;;;;;26.05;28.77;97953.06;4936497;28;20054;-55
2022/01/17 01:32:55;;;;;;;3.05;1.67;;;;;;;26.04;28.72;97946.09;4938100;28;20037;-58
2022/01/17 01:35:24;;;;;;;2.22;1.40;;;;;;;26.04;28.60;97956.59;4936352;28;20062;-57
2022/01/17 01:37:49;;;;;;;4.50;1.60;;;;;;;26.04;28.60;97956.59;4933739;28;21124;-56
2022/01/17 01:40:16;;;;;;;3.70;1.60;;;;;;;26.04;28.59;97958.34;4938595;28;20042;-56
2022/01/17 01:42:42;;;;;;;2.33;1.50;;;;;;;26.03;28.77;97960.16;4935753;28;20046;-59
2022/01/17 01:45:09;;;;;;;3.08;1.73;;;;;;;26.03;28.68;97962.78;4935563;28;20050;-56
2022/01/17 01:47:35;;;;;;;2.28;1.48;;;;;;;26.03;28.71;97962.78;4936794;28;20054;-56
2022/01/17 01:50:00;;;;;;;4.53;1.60;;;;;;;26.03;28.75;97954.91;4938089;28;20035;-57
2022/01/17 01:52:25;;;;;;;2.50;1.58;;;;;;;26.03;28.68;97949.63;4921524;28;20136;-57
2022/01/17 01:54:51;;;;;;;4.30;1.70;;;;;;;26.03;28.73;97960.16;4934598;28;20039;-56
2022/01/17 01:57:16;;;;;;;3.25;1.50;;;;;;;26.01;28.64;97954.06;4935845;28;20685;-56
2022/01/17 01:59:42;;;;;;;3.50;1.50;;;;;;;26.02;28.66;97955.81;4921420;28;20035;-56
2022/01/17 02:02:07;;;;;;;2.53;1.27;;;;;;;26.02;28.72;97953.19;4937312;28;20058;-55
2022/01/17 02:04:33;;;;;;;3.45;1.48;;;;;;;26.01;28.14;97940.94;4939178;28;20536;-55
2022/01/17 02:06:58;;;;;;;2.80;1.35;;;;;;;26.02;28.75;97936.56;4939082;28;20035;-57
2022/01/17 02:09:24;;;;;;;2.65;1.30;;;;;;;26.01;28.61;97938.31;4938696;28;20031;-56
2022/01/17 02:11:49;;;;;;;1.95;1.20;;;;;;;26.01;28.95;97935.69;4938952;28;20035;-57
2022/01/17 02:14:15;;;;;;;2.03;1.42;;;;;;;26.01;28.74;97940.09;4942246;28;20488;-56
2022/01/17 02:16:41;;;;;;;2.28;1.50;;;;;;;26.01;28.69;97929.59;4942584;28;20038;-57
2022/01/17 02:19:07;;;;;;;2.05;1.30;;;;;;;26.00;28.77;97943.66;4941512;28;20027;-57
2022/01/17 02:21:34;;;;;;;2.80;1.50;;;;;;;25.98;28.88;97946.31;4937785;28;20063;-57
2022/01/17 02:24:00;;;;;;;1.92;1.27;;;;;;;25.98;28.75;97935.81;4940243;28;20023;-57
2022/01/17 02:26:26;;;;;;;1.40;1.23;;;;;;;25.99;28.65;97942.78;4937902;28;20073;-58
2022/01/17 02:28:53;;;;;;;1.45;1.20;;;;;;;26.00;28.65;97933.97;4941125;28;20142;-57
2022/01/17 02:31:18;;;;;;;3.22;1.55;;;;;;;25.99;28.76;97934.91;4939819;28;20034;-56
2022/01/17 02:33:44;;;;;;;1.65;1.10;;;;;;;26.00;28.76;97938.41;4937887;28;20121;-58
2022/01/17 02:36:09;;;;;;;2.20;1.25;;;;;;;26.00;28.64;97927.88;4938135;28;20536;-55
2022/01/17 02:38:35;;;;;;;2.05;1.30;;;;;;;25.99;28.77;97927.03;4945559;28;20601;-57
2022/01/17 02:41:00;;;;;;;2.00;1.42;;;;;;;25.99;28.81;97929.66;4938104;28;20039;-55
2022/01/17 02:43:27;;;;;;;1.80;1.35;;;;;;;25.98;28.64;97925.31;4942718;28;20038;-57
2022/01/17 02:48:31;;;;;;;2.00;1.23;;;;;;;25.96;28.81;97937.63;4951756;28;20123;-57
2022/01/17 02:50:57;;;;;;;1.95;1.30;;;;;;;25.97;28.70;97934.09;4947398;28;20031;-56
2022/01/17 02:53:23;;;;;;;1.77;1.17;;;;;;;25.97;28.81;97936.72;4932334;28;20602;-56
2022/01/17 02:55:53;;;;;;;2.25;1.40;;;;;;;25.98;28.77;97937.56;4947337;28;20078;-57
2022/01/17 02:58:20;;;;;;;1.88;1.30;;;;;;;25.96;28.68;97942.88;4947989;28;20035;-58
2022/01/17 03:00:46;;;;;;;2.10;1.23;;;;;;;25.96;28.78;97951.63;4946716;28;20027;-57
2022/01/17 03:03:15;;;;;;;2.55;1.15;;;;;;;25.96;28.73;97949.00;4936384;28;20030;-57
2022/01/17 03:05:41;;;;;;;1.88;1.35;;;;;;;25.94;28.69;97939.47;4938064;28;20061;-58
2022/01/17 03:08:06;;;;;;;2.42;1.42;;;;;;;25.96;28.61;97948.13;4936131;28;21959;-55
2022/01/17 03:10:43;;;;;;;2.55;1.30;;;;;;;25.96;28.74;97945.50;4937998;28;20078;-57
2022/01/17 03:13:13;;;;;;;2.00;1.35;;;;;;;25.96;28.77;97953.38;4939011;28;20082;-58
2022/01/17 03:15:39;;;;;;;1.50;1.10;;;;;;;25.96;28.75;97950.75;4936964;28;20035;-58
2022/01/17 03:18:04;;;;;;;1.63;1.15;;;;;;;25.95;28.53;97952.53;4938908;28;20078;-58
2022/01/17 03:20:30;;;;;;;1.63;1.00;;;;;;;25.94;28.85;97950.81;4940209;28;20023;-56
2022/01/17 03:22:55;;;;;;;1.13;0.98;;;;;;;25.93;28.77;97943.84;4939696;28;20038;-58
2022/01/17 03:25:21;;;;;;;1.35;1.25;;;;;;;25.93;28.76;97940.38;4937871;28;20031;-55
2022/01/17 03:27:46;;;;;;;1.77;1.20;;;;;;;25.94;28.74;97942.09;4937410;28;20130;-58
2022/01/17 03:30:12;;;;;;;1.45;1.00;;;;;;;25.93;28.83;97938.59;4937795;28;20081;-56
2022/01/17 03:32:40;;;;;;;1.30;1.20;;;;;;;25.93;28.67;97932.50;4937503;28;20425;-57
2022/01/17 03:35:06;;;;;;;1.42;1.33;;;;;;;25.94;28.82;97931.59;4933807;28;20035;-57
2022/01/17 03:37:31;;;;;;;1.95;1.05;;;;;;;25.93;28.83;97927.25;4940556;28;20071;-55
2022/01/17 03:39:57;;;;;;;1.30;1.08;;;;;;;25.94;28.68;97918.47;4939844;28;20038;-57
2022/01/17 03:42:24;;;;;;;1.85;1.15;;;;;;;25.93;28.90;97916.75;4938933;28;20061;-57
2022/01/17 03:44:49;;;;;;;1.30;0.80;;;;;;;25.93;28.71;97917.59;4938666;28;20031;-56
2022/01/17 03:47:15;;;;;;;1.88;1.20;;;;;;;25.93;28.78;97917.59;4942840;28;20021;-57
2022/01/17 03:49:40;;;;;;;1.10;1.00;;;;;;;25.94;28.69;97928.97;4941062;28;20669;-55
2022/01/17 03:52:06;;;;;;;1.77;1.10;;;;;;;25.93;28.89;97937.75;4938669;28;20734;-56
2022/01/17 03:54:31;;;;;;;1.73;1.30;;;;;;;25.92;28.84;97939.50;4935709;28;20645;-57
2022/01/17 03:56:58;;;;;;;1.90;0.90;;;;;;;25.93;28.63;97948.25;4928037;28;20058;-56
2022/01/17 03:59:23;;;;;;;2.92;1.05;;;;;;;25.92;28.77;97946.53;4937992;28;20641;-58
2022/01/17 04:01:49;;;;;;;2.22;1.00;;;;;;;25.91;28.81;97957.94;4937107;28;20034;-56
2022/01/17 04:04:14;;;;;;;3.38;1.10;;;;;;;25.92;28.75;97967.53;4935793;28;20046;-56
2022/01/17 04:06:40;;;;;;;1.23;0.90;;;;;;;25.91;28.77;97966.69;4939115;28;20986;-58
2022/01/17 04:09:05;;;;;;;1.65;0.80;;;;;;;25.92;28.80;97964.91;4935128;28;20046;-57
2022/01/17 04:11:31;;;;;;;1.65;1.00;;;;;;;25.91;28.80;97957.94;4939239;28;20532;-58
2022/01/17 04:13:56;;;;;;;1.88;1.00;;;;;;;25.91;28.89;97956.19;4939998;28;20027;-58
2022/01/17 04:16:21;;;;;;;2.20;1.10;;;;;;;25.91;28.76;97965.81;4943353;28;20038;-57
2022/01/17 04:18:47;;;;;;;1.60;1.17;;;;;;;25.91;28.74;97966.69;4937387;28;20560;-57
2022/01/17 04:21:12;;;;;;;1.35;0.90;;;;;;;25.90;28.81;97966.75;4940401;28;20019;-57
2022/01/17 04:23:38;;;;;;;1.88;1.20;;;;;;;25.90;28.72;97964.13;4938624;28;20035;-57
2022/01/17 04:26:03;;;;;;;2.10;1.08;;;;;;;25.90;28.76;97957.06;4935681;28;20043;-56
2022/01/17 04:28:28;;;;;;;1.48;0.98;;;;;;;25.90;28.80;97953.63;4939816;28;20060;-57
2022/01/17 04:30:54;;;;;;;1.10;0.90;;;;;;;25.87;28.91;97938.81;4937573;28;20401;-57
2022/01/17 04:33:19;;;;;;;1.67;1.00;;;;;;;25.90;28.72;97948.38;4938884;28;20031;-57
2022/01/17 04:35:45;;;;;;;8.15;2.15;;;;;;;25.90;28.80;97953.63;4938536;28;20027;-57
2022/01/17 04:38:17;;;;;;;1.52;1.20;;;;;;;25.87;28.95;97943.22;4935042;28;20066;-57
2022/01/17 04:40:46;;;;;;;1.48;1.10;;;;;;;25.88;28.95;97939.66;4935524;28;20097;-56
2022/01/17 04:43:43;;;;;;;2.03;0.80;;;;;;;25.87;28.87;97938.81;4946693;28;20118;-56
2022/01/17 04:46:08;;;;;;;2.55;0.93;;;;;;;25.87;28.95;97937.97;4939395;28;20043;-57
2022/01/17 04:48:34;;;;;;;2.03;1.20;;;;;;;25.86;28.97;97946.75;4935701;28;20461;-60
2022/01/17 04:50:59;;;;;;;1.00;0.90;;;;;;;25.86;28.94;97957.25;4937450;28;20038;-56
2022/01/17 04:53:25;;;;;;;2.65;1.23;;;;;;;25.86;29.00;97957.25;4935933;28;20505;-56
2022/01/17 04:55:51;;;;;;;1.08;0.98;;;;;;;25.86;28.96;97965.13;4938449;28;20041;-60
2022/01/17 04:58:16;;;;;;;2.28;0.90;;;;;;;25.86;28.85;97973.00;4938191;28;20023;-57
2022/01/17 05:00:48;;;;;;;1.95;1.10;;;;;;;25.86;28.90;97962.50;4935769;28;20405;-57
2022/01/17 05:03:18;;;;;;;1.25;0.82;;;;;;;25.86;28.85;97947.63;4934243;28;20035;-57
2022/01/17 05:05:44;;;;;;;1.23;0.85;;;;;;;25.87;28.92;97964.22;4934835;28;20053;-56
2022/01/17 05:08:09;;;;;;;1.08;0.98;;;;;;;25.86;29.01;97973.88;4924644;28;20023;-57
2022/01/17 05:10:35;;;;;;;1.02;0.70;;;;;;;25.86;28.79;97963.38;4941572;28;20024;-56
2022/01/17 05:13:01;;;;;;;1.45;1.00;;;;;;;25.86;28.83;97957.25;4915513;28;20486;-56
2022/01/17 05:15:36;;;;;;;1.35;0.98;;;;;;;25.86;28.71;97962.50;4946303;28;20136;-56
2022/01/17 05:20:35;;;;;;;1.45;0.82;;;;;;;25.85;29.01;97977.41;4946907;28;20512;-55
2022/01/17 05:23:01;;;;;;;1.25;1.00;;;;;;;25.87;29.05;97972.09;4947697;28;20031;-57
2022/01/17 05:25:26;;;;;;;1.23;1.00;;;;;;;25.86;29.01;97967.75;4928325;28;20089;-57
2022/01/17 05:27:52;;;;;;;1.33;0.90;;;;;;;25.85;28.74;97968.69;4925116;28;20019;-56
2022/01/17 05:30:18;;;;;;;1.23;1.00;;;;;;;25.83;28.92;97985.31;4927098;28;20129;-57
2022/01/17 05:32:44;;;;;;;1.05;1.00;;;;;;;25.85;28.92;97984.44;4914988;28;20086;-57
2022/01/17 05:35:09;;;;;;;1.10;1.00;;;;;;;25.85;28.89;97992.31;4929404;28;20465;-57
2022/01/17 05:37:35;;;;;;;1.02;0.80;;;;;;;25.85;28.95;97987.06;4929549;28;20498;-56
2022/01/17 05:40:00;;;;;;;1.55;1.00;;;;;;;25.85;28.64;97981.81;4930470;28;20038;-57
2022/01/17 05:42:26;;;;;;;1.23;0.80;;;;;;;25.83;29.19;97980.06;4939314;28;20413;-57
2022/01/17 05:44:52;;;;;;;1.40;0.90;;;;;;;25.84;28.76;97980.94;4951958;28;20027;-55
2022/01/17 05:47:17;;;;;;;0.90;0.70;;;;;;;25.84;28.95;97978.31;4926313;28;20031;-59
2022/01/17 05:49:43;;;;;;;1.20;0.70;;;;;;;25.84;29.07;97980.94;4948442;28;20034;-60
2022/01/17 05:52:09;;;;;;;0.70;0.70;;;;;;;25.86;28.82;97967.75;4942559;28;20062;-57
2022/01/17 05:54:34;;;;;;;1.30;0.77;;;;;;;25.85;28.86;97966.88;4936004;28;20038;-57
2022/01/17 05:57:00;;;;;;;1.42;0.93;;;;;;;25.86;28.95;97962.50;4952762;28;20054;-58
2022/01/17 05:59:25;;;;;;;2.30;0.80;;;;;;;25.85;28.76;97963.44;4945469;28;20161;-57
2022/01/17 06:01:51;;;;;;;0.90;0.80;;;;;;;25.86;28.69;97978.25;4946818;28;20039;-58
2022/01/17 06:04:16;;;;;;;1.17;1.00;;;;;;;25.85;28.80;97971.31;4949422;28;20035;-58
2022/01/17 06:06:41;;;;;;;3.08;0.93;;;;;;;25.85;29.15;97973.94;4949777;28;20035;-57
2022/01/17 06:09:07;;;;;;;0.95;0.88;;;;;;;25.85;29.02;97966.06;4946951;28;20026;-57
2022/01/17 06:11:35;;;;;;;0.95;0.80;;;;;;;25.85;28.73;97966.06;4940612;28;20027;-56
2022/01/17 06:14:01;;;;;;;1.42;0.85;;;;;;;25.85;29.04;97966.06;4948400;28;20024;-58
2022/01/17 06:16:26;;;;;;;0.90;0.80;;;;;;;25.85;28.66;97974.78;4948268;28;20035;-57
2022/01/17 06:18:51;;;;;;;1.10;0.80;;;;;;;25.83;29.13;97974.81;4946980;28;21312;-56
2022/01/17 06:21:17;;;;;;;1.05;0.95;;;;;;;25.85;28.84;97982.66;4943631;28;20425;-57
2022/01/17 06:23:42;;;;;;;0.57;0.55;;;;;;;25.83;29.21;97979.22;4948473;28;20437;-58
2022/01/17 06:26:08;;;;;;;1.33;0.70;;;;;;;25.83;29.27;97972.19;4945614;28;20042;-57
2022/01/17 06:28:33;;;;;;;1.70;0.82;;;;;;;25.85;28.66;97976.56;4951409;28;20043;-57
2022/01/17 06:30:58;;;;;;;0.60;0.60;;;;;;;25.85;29.11;97971.31;4947406;28;20778;-57
2022/01/17 06:33:24;;;;;;;0.65;0.63;;;;;;;25.83;29.23;97984.47;4948252;28;20035;-57
2022/01/17 06:35:50;;;;;;;0.80;0.70;;;;;;;25.85;28.85;98002.81;4946280;28;20031;-58
2022/01/17 06:38:15;;;;;;;1.35;0.80;;;;;;;25.84;29.04;97996.69;4948349;28;20023;-57
2022/01/17 06:40:41;;;;;;;2.83;0.80;;;;;;;25.85;28.73;98002.81;4946013;28;20189;-56
2022/01/17 06:43:08;;;;;;;1.10;0.88;;;;;;;25.85;28.74;98008.06;4948798;28;20031;-57
2022/01/17 06:45:35;;;;;;;0.50;0.50;;;;;;;25.83;29.23;98008.94;4954871;28;20035;-57
2022/01/17 06:48:01;;;;;;;1.38;0.70;;;;;;;25.85;29.27;98026.44;4961536;28;20444;-56
2022/01/17 06:50:26;;;;;;;0.60;0.60;;;;;;;25.82;29.11;98019.53;4966242;28;20409;-57
2022/01/17 06:52:52;;;;;;;1.95;0.57;;;;;;;25.84;28.86;98012.44;4960194;28;20487;-59
2022/01/17 06:55:17;;;;;;;0.60;0.60;;;;;;;25.85;28.92;98029.06;4950103;28;20244;-57
2022/01/17 06:57:42;;;;;;;1.10;0.60;;;;;;;25.86;29.17;98031.66;4947945;28;20039;-58
2022/01/17 07:00:09;;;;;;;0.77;0.70;;;;;;;25.86;29.04;98036.91;4936549;28;20046;-57
2022/01/17 07:02:34;;;;;;;1.02;0.70;;;;;;;25.86;28.59;98046.53;4946711;28;20290;-55
2022/01/17 07:04:59;;;;;;;1.25;0.60;;;;;;;25.86;28.83;98049.16;4947667;28;20050;-58
2022/01/17 07:07:25;;;;;;;0.60;0.60;;;;;;;25.87;28.75;98053.50;4950534;28;20246;-57
2022/01/17 07:09:50;;;;;;;0.50;0.50;;;;;;;25.87;28.89;98043.00;4946423;28;20070;-59
2022/01/17 07:12:16;;;;;;;0.80;0.68;;;;;;;25.86;28.81;98047.41;4944958;28;20301;-55
2022/01/17 07:14:42;;;;;;;0.60;0.60;;;;;;;25.88;29.21;98057.84;4960437;28;20040;-54
2022/01/17 07:17:09;;;;;;;0.70;0.70;;;;;;;25.87;29.16;98059.63;4945963;28;20138;-57
2022/01/17 07:19:34;;;;;;;0.90;0.70;;;;;;;25.87;29.01;98074.50;4943551;28;20129;-57
2022/01/17 07:22:00;;;;;;;0.95;0.50;;;;;;;25.88;28.63;98091.97;4949254;28;20528;-58
2022/01/17 07:24:25;;;;;;;1.40;0.68;;;;;;;25.89;29.09;98101.59;4944817;28;20035;-56
2022/01/17 07:26:51;;;;;;;0.82;0.60;;;;;;;25.89;28.82;98119.97;4946243;28;20023;-58
2022/01/17 07:29:16;;;;;;;0.77;0.70;;;;;;;25.90;28.71;98129.56;4951233;28;20424;-56
2022/01/17 07:31:42;;;;;;;0.73;0.50;;;;;;;25.90;28.65;98105.94;4950035;28;20039;-57
2022/01/17 07:34:07;;;;;;;0.73;0.70;;;;;;;25.89;29.24;98101.59;4948518;28;20306;-57
2022/01/17 07:36:32;;;;;;;3.38;0.85;;;;;;;25.90;29.16;98103.31;4949230;28;20042;-57
2022/01/17 07:38:58;;;;;;;4.78;1.65;;;;;;;25.89;29.21;98083.22;4946554;28;20030;-57
2022/01/17 07:41:23;;;;;;;2.40;1.25;;;;;;;25.88;28.80;98078.84;4946964;28;20031;-57
2022/01/17 07:43:50;;;;;;;4.22;1.08;;;;;;;25.87;29.33;98064.00;4947959;28;20512;-57
2022/01/17 07:46:33;;;;;;;6.40;2.05;;;;;;;25.86;28.69;98051.78;4943738;28;20023;-55
2022/01/17 07:49:09;;;;;;;;;;;;;;;;;;;;;
2022/01/17 07:51:25;;;;;;;13.85;3.03;;;;;;;25.85;28.75;98065.84;4940675;28;20035;-56
2022/01/17 07:53:50;;;;;;;9.07;2.33;;;;;;;25.85;28.72;98055.34;4934746;28;20046;-57
2022/01/17 07:56:15;;;;;;;8.70;2.88;;;;;;;25.83;29.04;98056.22;4933519;28;20509;-55
2022/01/17 07:58:41;;;;;;;8.98;3.20;;;;;;;25.85;28.96;98065.84;4924257;28;20035;-57
2022/01/17 08:01:08;;;;;;;9.00;2.60;;;;;;;25.86;29.24;98088.56;4938805;28;20133;-56
2022/01/17 08:03:33;;;;;;;11.57;2.92;;;;;;;25.86;29.08;98088.56;4938761;28;20476;-57
2022/01/17 08:05:59;;;;;;;13.50;2.72;;;;;;;25.87;29.33;98074.50;4939320;28;20042;-56
2022/01/17 08:08:25;;;;;;;6.88;2.42;;;;;;;25.87;29.12;98085.00;4939900;28;20062;-57
2022/01/17 08:10:50;;;;;;;7.13;2.30;;;;;;;25.87;28.99;98091.13;4939499;28;20034;-55
2022/01/17 08:13:16;;;;;;;6.57;2.40;;;;;;;25.88;29.08;98091.97;4941924;28;20404;-57
2022/01/17 08:15:42;;;;;;;6.22;2.03;;;;;;;25.90;29.02;98105.94;4940081;28;20034;-56
2022/01/17 08:18:07;;;;;;;13.13;2.60;;;;;;;25.90;29.00;98116.44;4939980;28;20361;-56
2022/01/17 08:20:32;;;;;;;6.43;2.10;;;;;;;25.91;29.47;98115.53;4942350;28;20037;-57
2022/01/17 08:22:58;;;;;;;5.25;2.40;;;;;;;25.91;29.11;98116.38;4941024;28;20219;-57
2022/01/17 08:25:23;;;;;;;6.40;2.40;;;;;;;25.91;29.34;98108.50;4942155;28;20031;-58
2022/01/17 08:27:49;;;;;;;9.00;2.83;;;;;;;25.93;29.19;98105.84;4938533;28;20038;-57
2022/01/17 08:30:14;;;;;;;7.63;1.98;;;;;;;25.93;29.23;98111.94;4937392;28;20400;-58
2022/01/17 08:32:40;;;;;;;5.28;2.38;;;;;;;25.95;29.50;98111.88;4934981;28;20031;-57
2022/01/17 08:35:06;;;;;;;7.53;1.95;;;;;;;25.96;29.43;98100.47;4938532;28;20125;-57
2022/01/17 08:37:32;;;;;;;6.05;2.65;;;;;;;25.95;29.19;98099.63;4935322;28;20037;-56
2022/01/17 08:40:00;;;;;;;7.20;2.35;;;;;;;25.96;29.13;98092.59;4937929;28;20030;-56
2022/01/17 08:42:26;;;;;;;4.45;2.13;;;;;;;25.95;29.37;98078.63;4923947;28;21052;-56
2022/01/17 08:44:54;;;;;;;8.18;2.60;;;;;;;25.95;29.11;98080.38;4944259;28;20039;-57
2022/01/17 08:47:20;;;;;;;7.22;2.53;;;;;;;25.96;28.95;98079.44;4939278;28;20122;-55
2022/01/17 08:49:47;;;;;;;6.95;2.15;;;;;;;25.96;29.27;98080.31;4938431;28;20494;-55
2022/01/17 08:52:15;;;;;;;6.38;2.08;;;;;;;25.96;29.05;98085.56;4939049;28;20035;-56
2022/01/17 08:54:40;;;;;;;6.40;2.15;;;;;;;25.96;29.15;98089.97;4921829;28;20046;-56
2022/01/17 08:57:06;;;;;;;4.68;2.10;;;;;;;25.98;29.14;98087.28;4940004;28;20508;-56
2022/01/17 08:59:31;;;;;;;6.75;2.58;;;;;;;25.97;29.41;98096.91;4935577;28;20298;-57
2022/01/17 09:01:57;;;;;;;7.32;2.33;;;;;;;25.98;29.13;98097.78;4941323;28;20058;-57
2022/01/17 09:04:23;;;;;;;3.88;1.85;;;;;;;25.99;29.15;98105.63;4938700;28;20023;-54
2022/01/17 09:06:48;;;;;;;3.97;2.17;;;;;;;26.01;29.52;98113.47;4938826;28;20035;-57
2022/01/17 09:09:14;;;;;;;3.38;1.77;;;;;;;26.01;29.83;98132.69;4937073;28;20031;-57
2022/01/17 09:11:39;;;;;;;5.72;2.00;;;;;;;26.03;29.85;98138.75;4935657;28;20478;-57
2022/01/17 09:14:05;;;;;;;5.38;2.25;;;;;;;26.04;29.85;98140.47;4943698;28;20484;-57
2022/01/17 09:16:31;;;;;;;6.05;2.63;;;;;;;26.05;28.17;98125.59;4938610;28;20399;-58
2022/01/17 09:18:56;;;;;;;12.43;2.95;;;;;;;25.92;25.67;98125.97;4940155;28;20031;-57
2022/01/17 09:21:22;;;;;;;7.10;3.00;;;;;;;25.75;24.26;98139.66;4940270;28;20023;-57
2022/01/17 09:23:48;;;;;;;10.93;2.78;;;;;;;25.55;24.42;98135.84;4939198;28;20038;-57
2022/01/17 09:26:14;;;;;;;4.57;2.47;;;;;;;25.42;24.69;98130.13;4944758;28;20081;-55
2022/01/17 09:28:39;;;;;;;2.85;2.10;;;;;;;25.35;25.07;98132.97;4939240;28;20035;-56
2022/01/17 09:31:05;;;;;;;3.28;2.15;;;;;;;25.31;25.36;98145.31;4943815;28;20027;-54
2022/01/17 09:33:30;;;;;;;10.18;2.17;;;;;;;25.29;25.86;98153.22;4937547;28;20031;-57
2022/01/17 09:35:56;;;;;;;6.85;1.98;;;;;;;25.31;25.81;98161.06;4937499;28;20038;-56
2022/01/17 09:38:21;;;;;;;2.55;1.73;;;;;;;25.34;26.20;98175.84;4941859;28;20066;-56
2022/01/17 09:40:47;;;;;;;4.18;1.85;;;;;;;25.37;26.19;98165.28;4912151;28;20875;-58
2022/01/17 09:43:12;;;;;;;6.45;1.83;;;;;;;25.41;26.44;98166.91;4945530;28;20027;-56
2022/01/17 09:45:38;;;;;;;3.63;1.58;;;;;;;25.46;26.44;98180.75;4940897;28;20081;-57
2022/01/17 09:48:06;;;;;;;4.18;1.98;;;;;;;25.48;26.57;98181.56;4939465;28;20019;-57
2022/01/17 09:50:34;;;;;;;5.82;1.50;;;;;;;25.53;26.86;98153.41;4938727;28;20034;-58
2022/01/17 09:53:00;;;;;;;9.88;2.13;;;;;;;25.57;26.75;98168.19;4940477;28;20027;-57
2022/01/17 09:55:27;;;;;;;8.77;2.53;;;;;;;25.61;26.92;98178.59;4943340;28;20070;-57
2022/01/17 09:57:56;;;;;;;18.77;4.65;;;;;;;25.64;26.82;98168.00;4930218;28;20030;-56
2022/01/17 10:00:25;;;;;;;27.15;5.97;;;;;;;25.67;27.11;98188.91;4941090;28;20695;-56
2022/01/17 10:02:55;;;;;;;17.02;3.60;;;;;;;25.70;27.08;98191.44;4941677;28;20035;-56
2022/01/17 10:05:21;;;;;;;28.70;4.65;;;;;;;25.72;26.93;98171.25;4934666;28;20027;-57
2022/01/17 10:08:00;;;;;;;29.80;5.55;;;;;;;25.74;27.23;98189.59;4937529;28;20038;-58
2022/01/17 10:10:46;;;;;;;21.38;5.00;;;;;;;25.76;27.04;98199.13;4944756;28;20122;-54
2022/01/17 10:13:23;;;;;;;29.70;5.32;;;;;;;25.76;27.21;98183.38;4945618;28;20127;-57
2022/01/17 10:16:15;;;;;;;22.45;5.35;;;;;;;25.79;27.38;98183.31;4948171;28;20192;-55
2022/01/17 10:19:02;;;;;;;22.98;4.78;;;;;;;25.80;27.64;98190.25;4954904;28;20039;-57
2022/01/17 10:21:51;;;;;;;26.92;5.57;;;;;;;25.82;27.67;98162.16;4948198;28;20030;-57
2022/01/17 10:24:24;;;;;;;22.77;5.10;;;;;;;25.83;27.89;98158.63;4945447;28;20028;-58
2022/01/17 10:37:13;;;;;;;17.63;4.43;;;;;;;25.90;27.74;98163.72;4940429;28;20097;-56
2022/01/17 10:40:02;;;;;;;12.57;3.80;;;;;;;25.91;27.66;98160.16;4945973;28;20031;-56
2022/01/17 10:42:39;;;;;;;14.68;3.95;;;;;;;25.92;28.06;98170.63;4945978;28;20049;-56
2022/01/17 10:45:25;;;;;;;12.18;4.28;;;;;;;25.93;28.40;98169.72;4947124;28;20031;-56
2022/01/17 10:47:54;;;;;;;11.40;4.20;;;;;;;25.94;27.96;98179.31;4941561;28;20106;-56
2022/01/17 10:50:20;;;;;;;9.15;3.78;;;;;;;25.96;28.17;98176.63;4937282;28;20111;-58
2022/01/17 10:52:53;;;;;;;14.45;3.78;;;;;;;25.96;27.99;98187.13;4939215;28;20274;-56
2022/01/17 10:55:24;;;;;;;11.68;3.17;;;;;;;25.98;27.99;98200.22;4938440;28;20041;-54
2022/01/17 10:57:56;;;;;;;14.68;4.03;;;;;;;26.00;28.01;98206.31;4945856;28;20580;-56
2022/01/17 11:00:27;;;;;;;11.18;3.55;;;;;;;26.01;27.99;98211.47;4926340;28;20066;-56
2022/01/17 11:02:58;;;;;;;9.27;3.37;;;;;;;26.02;27.82;98210.59;4944699;28;20484;-54
2022/01/17 11:05:23;;;;;;;10.38;3.63;;;;;;;26.01;27.97;98198.34;4935854;28;20114;-57
2022/01/17 11:07:52;;;;;;;10.23;3.42;;;;;;;26.02;27.93;98204.47;4948247;28;20073;-52
2022/01/17 11:10:23;;;;;;;8.05;2.90;;;;;;;26.04;28.06;98208.78;4940074;28;20340;-54
2022/01/17 11:12:50;;;;;;;14.43;3.47;;;;;;;26.02;28.03;98193.97;4939840;28;20149;-55
2022/01/17 11:15:15;;;;;;;10.50;3.22;;;;;;;26.05;28.13;98202.59;4940179;28;20158;-54
2022/01/17 11:17:48;;;;;;;10.90;3.38;;;;;;;26.06;28.04;98200.84;4942651;28;20062;-57
2022/01/17 11:20:13;;;;;;;11.65;2.90;;;;;;;26.07;28.04;98200.81;4944278;28;20038;-55
2022/01/17 11:22:44;;;;;;;11.20;2.88;;;;;;;26.07;28.40;98203.44;4943884;28;20026;-55
2022/01/17 11:25:20;;;;;;;8.15;3.13;;;;;;;26.08;28.33;98213.03;4943327;28;20118;-55
2022/01/17 11:27:46;;;;;;;8.05;3.00;;;;;;;26.09;28.13;98208.63;4948805;28;20062;-55
2022/01/17 11:30:12;;;;;;;5.97;2.55;;;;;;;26.09;28.08;98198.13;4942657;28;20082;-55
2022/01/17 11:32:38;;;;;;;12.02;3.33;;;;;;;26.10;28.39;98197.22;4941783;28;20158;-56
2022/01/17 11:35:04;;;;;;;9.18;3.15;;;;;;;26.12;28.23;98199.78;4924749;28;20050;-57
2022/01/17 11:37:35;;;;;;;13.00;2.72;;;;;;;26.13;28.24;98204.13;4923571;28;20110;-55
2022/01/17 11:40:00;;;;;;;11.50;3.28;;;;;;;26.13;28.38;98204.13;4928161;28;20038;-55
2022/01/17 11:42:36;;;;;;;8.25;2.95;;;;;;;26.13;28.25;98197.13;4933743;28;20038;-56
2022/01/17 11:45:22;;;;;;;8.80;2.90;;;;;;;26.16;28.42;98190.91;4943390;28;20354;-57
2022/01/17 11:47:53;;;;;;;11.15;2.72;;;;;;;26.16;28.18;98191.75;4923045;28;20035;-57
2022/01/17 11:50:28;;;;;;;8.35;2.58;;;;;;;26.16;28.35;98189.13;4935403;28;20034;-55
2022/01/17 11:52:54;;;;;;;9.57;2.78;;;;;;;26.14;28.37;98169.06;4947051;28;20114;-56
2022/01/17 11:55:38;;;;;;;4.72;2.20;;;;;;;26.17;28.30;98155.84;4954767;28;20031;-54
2022/01/17 11:58:29;;;;;;;9.23;2.50;;;;;;;26.17;28.41;98147.97;4946683;28;20035;-56